Time;durP1;ratioP1;P1;durP2;ratioP2;P2;SDS_P1;SDS_P2;PMS_P1;PMS_P2;Temp;Humidity;BMP_temperature;BMP_pressure;BME280_temperature;BME280_humidity;BME280_pressure;Samples;Min_cycle;Max_cycle;Signal;HPM_P1;HPM_P2
2020/12/21 00:01:52;;;;;;;21.70;9.02;;;9.30;86.70;;;;;;4974969;28;20085;-51
2020/12/21 00:04:18;;;;;;;18.83;9.00;;;9.30;86.80;;;;;;4972512;28;20082;-51
2020/12/21 00:06:43;;;;;;;18.42;9.90;;;9.30;86.90;;;;;;4965371;28;20109;-50
2020/12/21 00:09:09;;;;;;;17.35;8.55;;;9.30;86.80;;;;;;4975219;28;20106;-51
2020/12/21 00:11:36;;;;;;;20.60;9.75;;;9.30;86.50;;;;;;4975005;28;20055;-50
2020/12/21 00:14:04;;;;;;;15.48;9.20;;;9.30;87.60;;;;;;4957993;28;20338;-51
2020/12/21 00:16:47;;;;;;;21.85;9.52;;;9.30;86.80;;;;;;4975181;28;20518;-50
2020/12/21 00:19:13;;;;;;;16.63;8.52;;;9.40;86.90;;;;;;4974122;28;20063;-51
2020/12/21 00:21:40;;;;;;;19.05;8.50;;;9.40;86.80;;;;;;4964866;28;20027;-51
2020/12/21 00:24:06;;;;;;;23.38;9.27;;;9.40;86.90;;;;;;4956001;29;20034;-50
2020/12/21 00:26:32;;;;;;;18.02;8.85;;;9.30;87.00;;;;;;4956043;29;20038;-50
2020/12/21 00:28:58;;;;;;;17.92;9.68;;;9.30;86.90;;;;;;4956688;28;20035;-51
2020/12/21 00:31:25;;;;;;;25.17;10.48;;;9.30;86.80;;;;;;4955844;29;20038;-51
2020/12/21 00:33:52;;;;;;;24.30;9.27;;;9.30;86.90;;;;;;4958976;28;20081;-51
2020/12/21 00:36:17;;;;;;;17.67;9.30;;;9.40;86.90;;;;;;4975031;28;20444;-51
2020/12/21 00:38:43;;;;;;;16.85;8.77;;;9.30;86.80;;;;;;4974864;28;20054;-51
2020/12/21 00:41:13;;;;;;;22.52;10.80;;;9.40;87.00;;;;;;4975279;28;20027;-50
2020/12/21 00:43:38;;;;;;;22.42;10.13;;;9.30;86.90;;;;;;4973116;28;20035;-51
2020/12/21 00:46:04;;;;;;;20.15;10.88;;;9.30;86.80;;;;;;4971955;28;20031;-51
2020/12/21 00:48:30;;;;;;;26.33;10.90;;;9.40;87.10;;;;;;4968784;28;20045;-51
2020/12/21 00:50:57;;;;;;;22.42;10.63;;;9.30;87.00;;;;;;4968980;28;20023;-51
2020/12/21 00:53:23;;;;;;;17.20;9.23;;;9.40;87.50;;;;;;4959372;29;20114;-51
2020/12/21 00:55:49;;;;;;;18.38;9.07;;;9.30;87.00;;;;;;4959428;28;20035;-50
2020/12/21 00:58:16;;;;;;;18.17;8.45;;;9.30;87.20;;;;;;4958839;29;20043;-51
2020/12/21 01:00:41;;;;;;;20.60;8.95;;;9.30;87.10;;;;;;4960284;28;20035;-51
2020/12/21 01:03:07;;;;;;;18.50;9.55;;;9.30;86.90;;;;;;4959365;28;20357;-51
2020/12/21 01:05:34;;;;;;;16.35;7.75;;;9.30;86.80;;;;;;4971754;28;20034;-50
2020/12/21 01:07:59;;;;;;;16.42;8.57;;;9.40;87.20;;;;;;4978627;28;20034;-51
2020/12/21 01:10:25;;;;;;;16.35;8.52;;;9.30;87.10;;;;;;4977043;28;20038;-51
2020/12/21 01:12:51;;;;;;;14.63;8.25;;;9.30;87.20;;;;;;4978063;28;20345;-51
2020/12/21 01:15:17;;;;;;;16.98;8.23;;;9.30;86.90;;;;;;4963227;28;20039;-51
2020/12/21 01:17:42;;;;;;;17.45;8.20;;;9.30;87.10;;;;;;4959124;29;20042;-51
2020/12/21 01:20:12;;;;;;;19.35;9.05;;;9.30;87.40;;;;;;4958833;28;20522;-50
2020/12/21 01:22:39;;;;;;;17.25;7.82;;;9.30;87.10;;;;;;4958880;28;20325;-51
2020/12/21 01:25:06;;;;;;;15.68;7.70;;;9.30;87.20;;;;;;4958134;29;20457;-51
2020/12/21 01:27:32;;;;;;;18.23;8.07;;;9.30;87.20;;;;;;4958882;29;20043;-51
2020/12/21 01:29:57;;;;;;;15.23;7.63;;;9.40;87.50;;;;;;4961126;28;20373;-51
2020/12/21 01:32:23;;;;;;;16.95;8.98;;;9.40;87.20;;;;;;4977831;28;20031;-50
2020/12/21 01:34:48;;;;;;;18.10;8.02;;;9.40;87.10;;;;;;4975629;28;20030;-51
2020/12/21 01:37:14;;;;;;;14.88;6.68;;;9.30;87.00;;;;;;4977019;28;20047;-51
2020/12/21 01:39:48;;;;;;;14.57;7.22;;;9.30;87.40;;;;;;4977456;28;20031;-51
2020/12/21 01:42:15;;;;;;;16.65;8.80;;;9.30;87.30;;;;;;4966169;28;20043;-51
2020/12/21 01:44:42;;;;;;;18.08;8.48;;;9.30;87.30;;;;;;4958725;29;20027;-50
2020/12/21 01:47:08;;;;;;;12.80;6.90;;;9.30;87.20;;;;;;4961056;28;20041;-51
2020/12/21 01:49:33;;;;;;;14.35;7.18;;;9.30;87.10;;;;;;4977661;28;20031;-50
2020/12/21 01:51:59;;;;;;;13.18;6.75;;;9.30;87.20;;;;;;4958526;28;20032;-51
2020/12/21 01:54:25;;;;;;;13.13;6.70;;;9.40;87.20;;;;;;4958313;29;20035;-51
2020/12/21 01:56:53;;;;;;;14.88;7.05;;;9.40;87.20;;;;;;4976444;28;20047;-51
2020/12/21 01:59:19;;;;;;;14.40;6.38;;;9.40;87.00;;;;;;4965228;28;20027;-50
2020/12/21 02:01:45;;;;;;;13.98;7.15;;;9.30;87.20;;;;;;4976349;28;20042;-51
2020/12/21 02:04:12;;;;;;;17.42;7.93;;;9.40;87.20;;;;;;4974568;28;20037;-51
2020/12/21 02:06:38;;;;;;;16.13;8.00;;;9.30;87.40;;;;;;4957693;29;20097;-50
2020/12/21 02:09:03;;;;;;;16.77;8.25;;;9.30;87.40;;;;;;4957513;29;20091;-51
2020/12/21 02:11:29;;;;;;;19.77;8.60;;;9.30;87.30;;;;;;4960625;28;20114;-51
2020/12/21 02:13:54;;;;;;;17.58;8.85;;;9.40;87.50;;;;;;4977624;28;20074;-51
2020/12/21 02:16:20;;;;;;;19.48;8.30;;;9.40;87.40;;;;;;4977023;28;20027;-51
2020/12/21 02:18:46;;;;;;;16.08;8.77;;;9.40;87.30;;;;;;4975868;28;20035;-50
2020/12/21 02:21:12;;;;;;;12.63;7.32;;;9.40;87.60;;;;;;4977129;28;20026;-51
2020/12/21 02:23:37;;;;;;;18.00;8.52;;;9.40;87.60;;;;;;4977000;28;20030;-51
2020/12/21 02:26:03;;;;;;;14.68;8.07;;;9.40;87.30;;;;;;4975396;28;20404;-51
2020/12/21 02:28:28;;;;;;;16.60;8.18;;;9.40;87.50;;;;;;4973118;28;20038;-50
2020/12/21 02:30:54;;;;;;;14.85;7.63;;;9.40;87.50;;;;;;4976867;28;20053;-51
2020/12/21 02:33:20;;;;;;;16.75;7.93;;;9.40;87.60;;;;;;4977049;28;20113;-51
2020/12/21 02:35:45;;;;;;;14.32;7.50;;;9.40;87.50;;;;;;4976672;28;20504;-51
2020/12/21 02:38:11;;;;;;;15.07;7.40;;;9.40;87.50;;;;;;4976640;28;20078;-51
2020/12/21 02:40:38;;;;;;;13.35;7.60;;;9.40;87.50;;;;;;4965642;28;20055;-51
2020/12/21 02:43:04;;;;;;;19.27;8.32;;;9.40;87.40;;;;;;4969943;28;20031;-51
2020/12/21 02:45:29;;;;;;;15.52;8.70;;;9.40;87.40;;;;;;4976535;28;20109;-51
2020/12/21 02:47:55;;;;;;;13.30;7.10;;;9.40;87.20;;;;;;4976529;28;20109;-51
2020/12/21 02:50:21;;;;;;;14.48;8.23;;;9.40;87.40;;;;;;4976125;28;20046;-51
2020/12/21 02:52:46;;;;;;;16.02;7.32;;;9.40;87.50;;;;;;4976439;28;20456;-51
2020/12/21 02:55:12;;;;;;;14.77;8.10;;;9.40;87.50;;;;;;4974844;28;20542;-50
2020/12/21 02:57:38;;;;;;;18.65;8.07;;;9.40;87.50;;;;;;4959531;28;20338;-51
2020/12/21 03:00:10;;;;;;;16.92;8.35;;;9.40;87.70;;;;;;4957096;29;20516;-50
2020/12/21 03:02:36;;;;;;;15.68;6.95;;;9.40;87.70;;;;;;4958189;28;20425;-51
2020/12/21 03:05:02;;;;;;;16.15;7.20;;;9.40;87.50;;;;;;4965503;28;20578;-51
2020/12/21 03:07:27;;;;;;;17.05;8.25;;;9.40;87.60;;;;;;4969696;28;20062;-50
2020/12/21 03:09:53;;;;;;;14.38;7.70;;;9.40;87.80;;;;;;4963981;28;20434;-51
2020/12/21 03:12:19;;;;;;;13.15;8.15;;;9.40;87.80;;;;;;4956441;28;20043;-51
2020/12/21 03:14:44;;;;;;;18.20;7.95;;;9.40;87.60;;;;;;4958819;28;20105;-51
2020/12/21 03:17:10;;;;;;;16.52;7.45;;;9.40;87.60;;;;;;4976240;28;20035;-51
2020/12/21 03:19:35;;;;;;;12.90;6.95;;;9.40;87.60;;;;;;4975829;28;20034;-51
2020/12/21 03:22:01;;;;;;;16.73;8.32;;;9.40;87.70;;;;;;4967026;28;20031;-50
2020/12/21 03:24:27;;;;;;;15.60;7.75;;;9.40;87.50;;;;;;4968325;28;20093;-50
2020/12/21 03:26:52;;;;;;;18.58;7.53;;;9.40;87.80;;;;;;4961351;28;20079;-51
2020/12/21 03:29:18;;;;;;;15.20;7.38;;;9.40;87.60;;;;;;4962954;28;20035;-51
2020/12/21 03:31:44;;;;;;;14.77;7.45;;;9.40;87.70;;;;;;4964669;28;20023;-51
2020/12/21 03:34:13;;;;;;;18.70;8.45;;;9.40;87.60;;;;;;4975247;28;20034;-51
2020/12/21 03:36:43;;;;;;;15.80;8.60;;;9.40;87.80;;;;;;4974573;28;20054;-51
2020/12/21 03:39:09;;;;;;;14.53;7.43;;;9.40;87.90;;;;;;4956143;29;20531;-51
2020/12/21 03:41:34;;;;;;;18.15;7.82;;;9.40;88.00;;;;;;4963426;28;20019;-50
2020/12/21 03:44:00;;;;;;;13.20;6.93;;;9.40;87.80;;;;;;4968665;28;20463;-51
2020/12/21 03:46:26;;;;;;;15.55;7.32;;;9.40;87.70;;;;;;4956229;28;20038;-50
2020/12/21 03:48:52;;;;;;;16.20;7.72;;;9.40;87.80;;;;;;4971329;28;20584;-51
2020/12/21 03:51:17;;;;;;;12.27;7.20;;;9.40;87.80;;;;;;4956099;28;20054;-51
2020/12/21 03:53:43;;;;;;;15.25;6.97;;;9.40;87.80;;;;;;4956324;29;20118;-50
2020/12/21 03:56:08;;;;;;;16.35;7.78;;;9.40;87.80;;;;;;4955877;29;20122;-50
2020/12/21 03:58:34;;;;;;;17.73;8.10;;;9.40;88.70;;;;;;4953456;29;20035;-51
2020/12/21 04:01:00;;;;;;;24.92;9.57;;;9.40;87.70;;;;;;4953583;29;20027;-51
2020/12/21 04:03:29;;;;;;;18.92;8.15;;;9.40;87.90;;;;;;4954692;28;20031;-51
2020/12/21 04:05:55;;;;;;;23.20;8.75;;;9.40;87.80;;;;;;4958467;28;20034;-51
2020/12/21 04:08:21;;;;;;;17.48;7.68;;;9.40;87.60;;;;;;4957301;28;20027;-51
2020/12/21 04:10:47;;;;;;;18.17;7.55;;;9.40;87.50;;;;;;4955305;29;20038;-50
2020/12/21 04:13:13;;;;;;;15.20;6.75;;;9.40;87.60;;;;;;4957025;28;20024;-51
2020/12/21 04:15:39;;;;;;;16.33;7.78;;;9.40;88.00;;;;;;4955682;29;20059;-50
2020/12/21 04:18:05;;;;;;;25.70;10.07;;;9.40;87.80;;;;;;4966691;28;20450;-51
2020/12/21 04:20:31;;;;;;;21.25;8.75;;;9.40;87.70;;;;;;4962930;28;20023;-50
2020/12/21 04:22:57;;;;;;;19.88;8.93;;;9.40;87.90;;;;;;4955878;28;20079;-51
2020/12/21 04:25:22;;;;;;;25.00;9.68;;;9.40;87.70;;;;;;4958915;29;20357;-51
2020/12/21 04:27:48;;;;;;;27.08;9.77;;;9.40;87.80;;;;;;4959947;29;20051;-50
2020/12/21 04:30:14;;;;;;;22.95;9.80;;;9.40;87.50;;;;;;4959710;29;20074;-51
2020/12/21 04:32:39;;;;;;;20.38;8.25;;;9.40;88.00;;;;;;4977408;28;20035;-51
2020/12/21 04:35:05;;;;;;;25.50;9.57;;;9.40;87.70;;;;;;4977659;28;20122;-51
2020/12/21 04:37:32;;;;;;;22.50;9.50;;;9.40;87.70;;;;;;4969606;28;20101;-50
2020/12/21 04:39:58;;;;;;;20.30;9.23;;;9.40;87.90;;;;;;4959369;29;20467;-51
2020/12/21 04:42:24;;;;;;;22.30;9.40;;;9.40;87.90;;;;;;4959611;29;20031;-51
2020/12/21 04:44:51;;;;;;;20.92;7.85;;;9.40;88.00;;;;;;4964873;28;20023;-50
2020/12/21 04:47:17;;;;;;;18.08;8.50;;;9.40;87.90;;;;;;4978818;28;20452;-51
2020/12/21 04:49:44;;;;;;;18.10;8.57;;;9.40;88.00;;;;;;4968250;28;20456;-51
2020/12/21 04:52:11;;;;;;;24.17;9.20;;;9.40;88.00;;;;;;4969642;28;20042;-51
2020/12/21 04:54:38;;;;;;;16.45;7.10;;;9.40;88.00;;;;;;4959516;29;20038;-51
2020/12/21 04:57:03;;;;;;;23.13;8.63;;;9.40;87.90;;;;;;4959332;29;20445;-51
2020/12/21 04:59:29;;;;;;;21.52;8.82;;;9.40;88.00;;;;;;4972243;28;20101;-51
2020/12/21 05:01:55;;;;;;;23.95;9.07;;;9.40;88.10;;;;;;4978141;28;20023;-51
2020/12/21 05:04:24;;;;;;;19.77;8.05;;;9.40;88.00;;;;;;4964716;28;20122;-51
2020/12/21 05:06:56;;;;;;;20.70;8.60;;;9.40;88.00;;;;;;4978784;28;20357;-51
2020/12/21 05:09:23;;;;;;;18.67;7.68;;;9.40;88.30;;;;;;4978148;28;20027;-51
2020/12/21 05:12:07;;;;;;;28.90;8.00;;;9.40;88.10;;;;;;4977671;28;20039;-51
2020/12/21 05:14:35;;;;;;;14.40;7.25;;;9.40;88.20;;;;;;4978101;28;20030;-51
2020/12/21 05:17:13;;;;;;;15.27;7.47;;;9.40;87.80;;;;;;4970224;28;20062;-51
2020/12/21 05:19:39;;;;;;;19.23;6.60;;;9.40;88.20;;;;;;4958679;29;20035;-51
2020/12/21 05:22:16;;;;;;;14.40;7.10;;;9.40;88.10;;;;;;4962556;28;20030;-51
2020/12/21 05:24:42;;;;;;;17.15;7.28;;;9.40;88.10;;;;;;4961542;28;20034;-51
2020/12/21 05:27:14;;;;;;;24.52;8.75;;;9.40;88.30;;;;;;4973709;28;20101;-51
2020/12/21 05:29:40;;;;;;;23.20;8.55;;;9.40;88.00;;;;;;4975719;28;20036;-52
2020/12/21 05:32:10;;;;;;;16.05;7.10;;;9.50;88.00;;;;;;4958888;28;20074;-51
2020/12/21 05:34:36;;;;;;;;;;;9.50;88.10;;;;;;4958541;28;20036;-52
2020/12/21 05:37:12;;;;;;;18.98;7.03;;;9.50;87.80;;;;;;4958600;28;19951;-51
2020/12/21 05:39:53;;;;;;;14.85;7.55;;;9.50;87.90;;;;;;4963677;28;20035;-52
2020/12/21 05:42:24;;;;;;;17.65;6.97;;;9.50;88.10;;;;;;4977978;28;20032;-51
2020/12/21 05:44:50;;;;;;;18.73;7.90;;;9.50;88.10;;;;;;4977543;28;20498;-52
2020/12/21 05:47:16;;;;;;;14.07;6.35;;;9.50;88.00;;;;;;4977036;28;20038;-51
2020/12/21 05:49:51;;;;;;;16.25;6.90;;;9.50;88.10;;;;;;4966352;28;20027;-51
2020/12/21 05:52:29;;;;;;;16.95;7.38;;;9.50;88.10;;;;;;4962452;28;20043;-51
2020/12/21 05:54:55;;;;;;;13.55;6.65;;;9.50;88.00;;;;;;4973811;28;20035;-51
2020/12/21 05:57:21;;;;;;;14.70;7.20;;;9.50;88.10;;;;;;4974691;28;20037;-51
2020/12/21 05:59:51;;;;;;;12.00;6.15;;;9.50;88.20;;;;;;4976339;28;20041;-51
2020/12/21 06:02:19;;;;;;;16.70;7.00;;;9.50;88.10;;;;;;4976284;28;20027;-51
2020/12/21 06:04:49;;;;;;;19.23;7.15;;;9.50;88.00;;;;;;4970966;28;20275;-52
2020/12/21 06:07:22;;;;;;;11.65;5.70;;;9.50;88.00;;;;;;4962348;28;20048;-51
2020/12/21 06:09:50;;;;;;;12.18;6.05;;;9.50;88.10;;;;;;4965503;28;20039;-51
2020/12/21 06:12:21;;;;;;;15.48;6.40;;;9.50;88.20;;;;;;4958348;29;20389;-51
2020/12/21 06:14:54;;;;;;;16.40;7.50;;;9.50;88.00;;;;;;4957886;29;20442;-52
2020/12/21 06:17:20;;;;;;;14.43;5.63;;;9.50;88.00;;;;;;4957742;28;20100;-51
2020/12/21 06:19:46;;;;;;;12.02;5.55;;;9.50;88.10;;;;;;4968794;28;20081;-52
2020/12/21 06:22:22;;;;;;;12.75;6.53;;;9.50;88.10;;;;;;4955335;29;20414;-51
2020/12/21 06:24:48;;;;;;;16.65;6.47;;;9.50;88.10;;;;;;4955645;29;20031;-51
2020/12/21 06:27:15;;;;;;;12.43;6.10;;;9.50;88.10;;;;;;4955336;28;20082;-51
2020/12/21 06:29:41;;;;;;;7.60;4.97;;;9.50;88.20;;;;;;4966459;28;20352;-51
2020/12/21 06:32:08;;;;;;;12.10;5.90;;;9.50;88.10;;;;;;4964357;28;20507;-52
2020/12/21 06:34:36;;;;;;;15.82;6.07;;;9.50;87.90;;;;;;4971642;28;20093;-51
2020/12/21 06:37:06;;;;;;;14.52;5.50;;;9.50;88.30;;;;;;4970036;28;20030;-51
2020/12/21 06:39:33;;;;;;;14.73;6.38;;;9.50;88.40;;;;;;4966962;28;20030;-52
2020/12/21 06:42:05;;;;;;;11.85;5.65;;;9.50;88.10;;;;;;4967899;28;20106;-51
2020/12/21 06:44:32;;;;;;;11.55;5.45;;;9.50;88.50;;;;;;4966824;28;20023;-51
2020/12/21 06:46:58;;;;;;;12.40;5.38;;;9.50;88.30;;;;;;4967529;28;20035;-51
2020/12/21 06:49:25;;;;;;;13.93;5.97;;;9.50;88.00;;;;;;4964342;28;20031;-51
2020/12/21 06:51:51;;;;;;;10.27;5.18;;;9.50;88.40;;;;;;4957502;28;20035;-51
2020/12/21 06:54:18;;;;;;;12.23;5.97;;;9.50;88.10;;;;;;4957252;29;20086;-51
2020/12/21 06:56:48;;;;;;;11.40;5.10;;;9.50;88.10;;;;;;4956877;29;20031;-52
2020/12/21 06:59:19;;;;;;;13.23;5.38;;;9.50;88.10;;;;;;4957345;29;20046;-51
2020/12/21 07:01:46;;;;;;;;;;;9.50;88.10;;;;;;4960116;28;20027;-51
2020/12/21 07:04:13;;;;;;;14.40;5.80;;;9.50;88.10;;;;;;4964276;28;19910;-52
2020/12/21 07:06:40;;;;;;;13.75;5.85;;;9.50;88.30;;;;;;4962752;28;20043;-51
2020/12/21 07:09:07;;;;;;;13.30;5.35;;;9.50;88.10;;;;;;4963277;28;20019;-51
2020/12/21 07:11:33;;;;;;;11.50;5.07;;;9.50;88.20;;;;;;4962021;28;20100;-51
2020/12/21 07:13:59;;;;;;;13.48;5.10;;;9.50;88.20;;;;;;4962019;28;20185;-51
2020/12/21 07:16:25;;;;;;;12.30;4.60;;;9.50;88.20;;;;;;4960187;28;20577;-52
2020/12/21 07:18:51;;;;;;;12.30;5.28;;;9.50;88.30;;;;;;4966552;28;20512;-51
2020/12/21 07:21:17;;;;;;;14.07;5.88;;;9.50;88.20;;;;;;4957815;28;20103;-52
2020/12/21 07:23:44;;;;;;;12.73;5.65;;;9.50;88.10;;;;;;4958115;28;20062;-51
2020/12/21 07:26:12;;;;;;;8.75;4.68;;;9.50;88.10;;;;;;4959409;28;20107;-51
2020/12/21 07:28:38;;;;;;;9.75;5.22;;;9.50;87.90;;;;;;4970426;28;20058;-52
2020/12/21 07:31:11;;;;;;;15.10;5.55;;;9.50;88.10;;;;;;4963463;28;20109;-51
2020/12/21 07:33:58;;;;;;;10.60;4.78;;;9.50;88.10;;;;;;4966926;28;20055;-51
2020/12/21 07:36:27;;;;;;;10.82;5.07;;;9.50;87.90;;;;;;4961857;28;20353;-51
2020/12/21 07:38:53;;;;;;;10.18;4.82;;;9.50;88.10;;;;;;4956257;28;20342;-51
2020/12/21 07:41:23;;;;;;;9.45;4.20;;;9.50;88.20;;;;;;4957039;28;20045;-51
2020/12/21 07:44:16;;;;;;;9.45;4.45;;;9.50;88.00;;;;;;4971060;28;20387;-52
2020/12/21 07:46:58;;;;;;;13.43;4.68;;;9.50;88.10;;;;;;4958345;28;20020;-52
2020/12/21 07:49:24;;;;;;;15.77;5.03;;;9.50;88.10;;;;;;4969666;28;20019;-51
2020/12/21 07:51:56;;;;;;;12.65;4.70;;;9.50;88.20;;;;;;4974383;28;20057;-51
2020/12/21 07:54:22;;;;;;;9.57;4.20;;;9.50;88.30;;;;;;4965751;28;20031;-51
2020/12/21 07:56:58;;;;;;;7.03;4.22;;;9.50;88.10;;;;;;4972952;28;20038;-51
2020/12/21 07:59:24;;;;;;;8.73;4.15;;;9.50;88.20;;;;;;4970139;28;20039;-51
2020/12/21 08:01:59;;;;;;;10.18;4.10;;;9.50;88.20;;;;;;4962821;28;20034;-51
2020/12/21 08:04:26;;;;;;;9.27;4.50;;;9.50;88.30;;;;;;4957741;28;20507;-52
2020/12/21 08:06:52;;;;;;;10.98;5.25;;;9.50;88.30;;;;;;4961868;28;20031;-51
2020/12/21 08:09:19;;;;;;;14.77;5.80;;;9.50;88.10;;;;;;4960776;28;20034;-51
2020/12/21 08:11:45;;;;;;;13.95;5.75;;;9.50;88.10;;;;;;4954462;29;20027;-51
2020/12/21 08:14:17;;;;;;;12.82;5.63;;;9.50;88.10;;;;;;4958326;28;20030;-51
2020/12/21 08:16:44;;;;;;;13.55;6.22;;;9.50;88.30;;;;;;4961537;28;20035;-51
2020/12/21 08:19:13;;;;;;;11.82;5.63;;;9.50;88.30;;;;;;4966646;28;20035;-51
2020/12/21 08:21:40;;;;;;;12.55;5.65;;;9.50;87.90;;;;;;4974858;28;20151;-51
2020/12/21 08:24:07;;;;;;;15.57;7.57;;;9.50;88.10;;;;;;4967129;28;20027;-51
2020/12/21 08:26:36;;;;;;;9.32;5.60;;;9.50;88.20;;;;;;4962614;28;20059;-52
2020/12/21 08:29:03;;;;;;;12.85;6.22;;;9.50;88.50;;;;;;4964201;28;20357;-51
2020/12/21 08:31:29;;;;;;;16.25;6.47;;;9.50;88.20;;;;;;4961784;28;20453;-51
2020/12/21 08:34:05;;;;;;;11.77;6.07;;;9.50;88.10;;;;;;4966640;28;20034;-52
2020/12/21 08:36:36;;;;;;;12.80;6.35;;;9.60;88.20;;;;;;4956649;28;20024;-51
2020/12/21 08:39:20;;;;;;;11.52;5.75;;;9.50;88.10;;;;;;4956354;28;20068;-51
2020/12/21 08:41:50;;;;;;;16.08;6.85;;;9.60;88.30;;;;;;4955852;29;20023;-51
2020/12/21 08:44:22;;;;;;;15.32;6.63;;;9.50;87.90;;;;;;4957076;28;20057;-51
2020/12/21 08:46:52;;;;;;;13.27;6.32;;;9.60;88.20;;;;;;4966702;28;20031;-51
2020/12/21 08:49:19;;;;;;;15.40;6.22;;;9.60;89.10;;;;;;4956416;28;20485;-51
2020/12/21 08:51:46;;;;;;;13.55;5.68;;;9.60;88.30;;;;;;4966949;28;20045;-51
2020/12/21 08:54:12;;;;;;;15.70;6.55;;;9.60;88.50;;;;;;4964525;28;20101;-51
2020/12/21 08:56:38;;;;;;;16.35;7.90;;;9.60;88.40;;;;;;4973395;28;20474;-51
2020/12/21 08:59:03;;;;;;;15.40;6.13;;;9.60;88.30;;;;;;4969640;28;20400;-51
2020/12/21 09:01:29;;;;;;;13.02;6.97;;;9.60;88.50;;;;;;4962448;28;20468;-51
2020/12/21 09:03:55;;;;;;;15.68;6.55;;;9.60;88.00;;;;;;4954370;28;20051;-52
2020/12/21 09:06:24;;;;;;;14.05;6.47;;;9.60;88.60;;;;;;4965856;28;20090;-51
2020/12/21 09:08:51;;;;;;;14.23;6.40;;;9.60;88.70;;;;;;4959264;28;20467;-51
2020/12/21 09:11:20;;;;;;;13.43;7.20;;;9.60;88.30;;;;;;4961409;28;20110;-51
2020/12/21 09:13:47;;;;;;;17.75;7.75;;;9.60;88.70;;;;;;4960417;28;20031;-51
2020/12/21 09:16:18;;;;;;;17.27;8.07;;;9.60;88.40;;;;;;4968560;28;20372;-51
2020/12/21 09:18:44;;;;;;;14.80;6.50;;;9.60;88.50;;;;;;4970976;28;20041;-51
2020/12/21 09:21:16;;;;;;;19.35;7.90;;;9.60;88.20;;;;;;4969003;28;20029;-51
2020/12/21 09:23:41;;;;;;;19.15;7.07;;;9.60;88.30;;;;;;4969399;28;20098;-51
2020/12/21 09:26:07;;;;;;;19.33;6.82;;;9.60;88.60;;;;;;4965103;28;20027;-51
2020/12/21 09:28:33;;;;;;;16.10;7.45;;;9.60;88.40;;;;;;4968384;28;20030;-51
2020/12/21 09:30:58;;;;;;;13.25;6.30;;;9.60;88.50;;;;;;4962429;28;20034;-51
2020/12/21 09:33:24;;;;;;;11.88;5.65;;;9.60;88.40;;;;;;4966312;28;20059;-52
2020/12/21 09:35:50;;;;;;;10.95;5.45;;;9.60;88.40;;;;;;4967308;28;20522;-51
2020/12/21 09:38:16;;;;;;;13.55;7.03;;;9.60;88.50;;;;;;4962036;28;20042;-51
2020/12/21 09:40:41;;;;;;;18.30;6.80;;;9.60;88.50;;;;;;4967229;28;20360;-52
2020/12/21 09:43:07;;;;;;;13.50;6.72;;;9.60;88.40;;;;;;4968796;28;20062;-51
2020/12/21 09:45:33;;;;;;;14.77;6.00;;;9.60;88.60;;;;;;4975650;28;20027;-51
2020/12/21 09:47:58;;;;;;;14.43;7.00;;;9.60;88.60;;;;;;4975141;28;20120;-51
2020/12/21 09:50:24;;;;;;;18.23;8.88;;;9.60;88.60;;;;;;4965844;28;20059;-52
2020/12/21 09:52:49;;;;;;;17.15;7.72;;;9.60;88.70;;;;;;4964353;28;20555;-52
2020/12/21 09:55:15;;;;;;;23.58;8.80;;;9.60;88.60;;;;;;4974267;28;20023;-51
2020/12/21 09:57:42;;;;;;;22.08;8.90;;;9.60;88.50;;;;;;4966179;28;20121;-51
2020/12/21 10:00:09;;;;;;;23.42;9.13;;;9.60;88.50;;;;;;4965244;28;20038;-51
2020/12/21 10:02:34;;;;;;;21.88;9.23;;;9.60;88.30;;;;;;4963796;28;20039;-51
2020/12/21 10:05:00;;;;;;;20.45;8.05;;;9.60;88.30;;;;;;4962826;28;20338;-53
2020/12/21 10:07:25;;;;;;;21.13;8.13;;;9.60;88.50;;;;;;4970365;28;20046;-52
2020/12/21 10:09:51;;;;;;;20.08;7.20;;;9.60;88.20;;;;;;4965495;28;20027;-52
2020/12/21 10:12:18;;;;;;;18.70;7.75;;;9.70;88.60;;;;;;4964090;28;20472;-52
2020/12/21 10:14:44;;;;;;;16.42;6.10;;;9.60;88.90;;;;;;4967274;28;20057;-52
2020/12/21 10:17:09;;;;;;;16.08;6.97;;;9.60;88.90;;;;;;4975848;28;20449;-52
2020/12/21 10:19:35;;;;;;;15.52;6.50;;;9.60;89.00;;;;;;4958796;28;20405;-52
2020/12/21 10:22:02;;;;;;;17.33;7.00;;;9.70;89.00;;;;;;4970146;28;20066;-52
2020/12/21 10:24:28;;;;;;;21.15;7.25;;;9.70;89.00;;;;;;4970085;28;20420;-52
2020/12/21 10:26:53;;;;;;;19.08;7.43;;;9.70;89.10;;;;;;4970753;28;20521;-52
2020/12/21 10:29:19;;;;;;;19.02;6.95;;;9.70;88.90;;;;;;4976116;28;20022;-51
2020/12/21 10:31:44;;;;;;;20.80;7.53;;;9.70;89.10;;;;;;4969038;28;20022;-52
2020/12/21 10:34:10;;;;;;;17.67;7.80;;;9.60;88.60;;;;;;4967795;28;20030;-53
2020/12/21 10:36:35;;;;;;;19.33;7.53;;;9.70;89.00;;;;;;4966023;28;20031;-52
2020/12/21 10:39:02;;;;;;;14.55;7.30;;;9.70;89.10;;;;;;4976539;28;20391;-52
2020/12/21 10:41:31;;;;;;;21.42;7.65;;;9.70;89.20;;;;;;4965124;28;20027;-52
2020/12/21 10:43:57;;;;;;;22.13;8.65;;;9.70;89.40;;;;;;4964623;28;20101;-52
2020/12/21 10:46:23;;;;;;;23.58;7.85;;;9.70;89.10;;;;;;4966684;28;20047;-52
2020/12/21 10:48:49;;;;;;;18.38;8.02;;;9.70;90.00;;;;;;4964270;28;20031;-52
2020/12/21 10:51:14;;;;;;;22.92;8.48;;;9.70;89.10;;;;;;4975834;28;20023;-52
2020/12/21 10:53:40;;;;;;;19.70;7.78;;;9.70;89.10;;;;;;4976195;28;20037;-52
2020/12/21 10:56:12;;;;;;;21.55;9.38;;;9.70;89.00;;;;;;4959551;28;20530;-52
2020/12/21 10:58:40;;;;;;;15.98;7.40;;;9.70;89.40;;;;;;4971903;28;20074;-51
2020/12/21 11:01:06;;;;;;;18.70;8.27;;;9.70;89.40;;;;;;4960244;28;20034;-52
2020/12/21 11:03:31;;;;;;;18.08;8.05;;;9.70;89.20;;;;;;4962298;28;20445;-52
2020/12/21 11:05:57;;;;;;;20.35;7.47;;;9.70;89.20;;;;;;4965620;28;20161;-52
2020/12/21 11:08:22;;;;;;;16.30;6.18;;;9.70;89.40;;;;;;4965061;28;20037;-52
2020/12/21 11:10:48;;;;;;;21.30;7.82;;;9.70;89.60;;;;;;4967926;28;20019;-52
2020/12/21 11:13:14;;;;;;;25.17;8.43;;;9.70;89.60;;;;;;4965182;28;20421;-52
2020/12/21 11:15:41;;;;;;;19.38;7.82;;;9.70;89.10;;;;;;4968707;28;20037;-52
2020/12/21 11:18:07;;;;;;;14.95;6.13;;;9.70;89.40;;;;;;4970220;28;20349;-52
2020/12/21 11:20:32;;;;;;;17.63;6.65;;;9.70;89.60;;;;;;4974108;28;20479;-52
2020/12/21 11:22:58;;;;;;;17.23;6.95;;;9.70;89.50;;;;;;4973475;28;20046;-52
2020/12/21 11:25:24;;;;;;;22.38;7.40;;;9.70;89.90;;;;;;4966801;28;20106;-52
2020/12/21 11:27:49;;;;;;;22.67;7.50;;;9.70;89.60;;;;;;4976192;28;20026;-52
2020/12/21 11:30:15;;;;;;;20.42;8.45;;;9.70;89.70;;;;;;4973252;28;20033;-52
2020/12/21 11:32:40;;;;;;;22.23;7.32;;;9.70;89.70;;;;;;4967517;28;20038;-52
2020/12/21 11:35:07;;;;;;;19.50;8.32;;;9.70;89.80;;;;;;4973448;28;20466;-52
2020/12/21 11:37:33;;;;;;;19.20;7.53;;;9.70;89.70;;;;;;4964252;28;20035;-52
2020/12/21 11:39:59;;;;;;;22.20;8.25;;;9.70;89.90;;;;;;4966851;28;20507;-51
2020/12/21 11:42:25;;;;;;;21.60;8.65;;;9.70;89.90;;;;;;4966235;28;20043;-52
2020/12/21 11:44:50;;;;;;;28.02;11.18;;;9.70;89.60;;;;;;4967407;28;20030;-52
2020/12/21 11:47:16;;;;;;;24.70;10.10;;;9.70;89.70;;;;;;4962619;28;20026;-52
2020/12/21 11:49:42;;;;;;;28.40;10.18;;;9.70;89.90;;;;;;4968490;28;20026;-52
2020/12/21 11:52:07;;;;;;;27.27;9.68;;;9.70;89.80;;;;;;4973172;28;20146;-52
2020/12/21 11:54:33;;;;;;;31.58;11.77;;;9.70;89.70;;;;;;4974536;28;20035;-51
2020/12/21 11:56:59;;;;;;;28.70;11.50;;;9.70;89.80;;;;;;4971528;28;20026;-52
2020/12/21 11:59:27;;;;;;;23.50;10.77;;;9.70;89.50;;;;;;4972989;28;20464;-52
2020/12/21 12:02:00;;;;;;;23.10;7.95;;;9.70;89.90;;;;;;4965258;28;20027;-52
2020/12/21 12:04:26;;;;;;;16.60;7.68;;;9.70;89.60;;;;;;4968747;28;20034;-52
2020/12/21 12:06:53;;;;;;;18.20;8.15;;;9.80;90.00;;;;;;4972416;28;20027;-52
2020/12/21 12:09:24;;;;;;;22.92;9.73;;;9.80;90.10;;;;;;4963596;28;20551;-52
2020/12/21 12:11:50;;;;;;;;;;;9.70;89.70;;;;;;4972125;28;20045;-51
2020/12/21 12:14:15;;;;;;;20.55;9.75;;;9.80;90.10;;;;;;4964649;28;20328;-52
2020/12/21 12:16:41;;;;;;;25.20;9.15;;;9.80;90.20;;;;;;4962632;28;20074;-52
2020/12/21 12:19:07;;;;;;;25.65;10.25;;;9.80;90.10;;;;;;4964292;28;20039;-51
2020/12/21 12:21:32;;;;;;;24.65;10.73;;;9.80;90.00;;;;;;4974319;28;20463;-51
2020/12/21 12:23:58;;;;;;;10.00;5.10;;;9.80;89.40;;;;;;4958315;28;20065;-52
2020/12/21 12:26:25;;;;;;;15.57;7.35;;;9.80;90.00;;;;;;4969810;28;20027;-52
2020/12/21 12:28:53;;;;;;;20.60;10.68;;;9.80;90.40;;;;;;4960914;28;20023;-51
2020/12/21 12:31:20;;;;;;;29.30;10.23;;;9.80;90.00;;;;;;4965993;28;20034;-52
2020/12/21 12:33:47;;;;;;;21.92;9.00;;;9.80;90.10;;;;;;4973626;28;20109;-52
2020/12/21 12:36:24;;;;;;;24.17;9.00;;;9.80;90.10;;;;;;4972609;28;20449;-52
2020/12/21 12:38:50;;;;;;;25.33;11.18;;;9.80;90.20;;;;;;4965521;28;20130;-52
2020/12/21 12:41:15;;;;;;;28.73;9.65;;;9.80;90.20;;;;;;4970271;28;20109;-52
2020/12/21 12:43:42;;;;;;;20.13;10.45;;;9.80;90.20;;;;;;4963916;28;20035;-52
2020/12/21 12:46:08;;;;;;;23.42;10.23;;;9.80;90.00;;;;;;4974173;28;20097;-52
2020/12/21 12:48:35;;;;;;;23.75;11.05;;;9.80;90.00;;;;;;4978796;28;20027;-52